sensor_id;sensor_type;location;lat;lon;timestamp;P1;durP1;ratioP1;P2;durP2;ratioP2
52542;SDS011;38449;52.696;6.186;2022-11-15T00:00:51;23.77;;;19.95;;
52542;SDS011;38449;52.696;6.186;2022-11-15T00:03:18;24.67;;;20.48;;
52542;SDS011;38449;52.696;6.186;2022-11-15T00:05:46;23.10;;;19.63;;
52542;SDS011;38449;52.696;6.186;2022-11-15T00:08:12;23.30;;;20.10;;
52542;SDS011;38449;52.696;6.186;2022-11-15T00:10:38;23.02;;;19.33;;
52542;SDS011;38449;52.696;6.186;2022-11-15T00:13:11;23.63;;;19.58;;
52542;SDS011;38449;52.696;6.186;2022-11-15T00:15:40;23.13;;;20.25;;
52542;SDS011;38449;52.696;6.186;2022-11-15T00:18:09;23.45;;;19.77;;
52542;SDS011;38449;52.696;6.186;2022-11-15T00:20:39;25.52;;;19.85;;
52542;SDS011;38449;52.696;6.186;2022-11-15T00:23:05;24.48;;;19.98;;
52542;SDS011;38449;52.696;6.186;2022-11-15T00:25:32;22.33;;;19.20;;
52542;SDS011;38449;52.696;6.186;2022-11-15T00:27:58;22.17;;;19.27;;
52542;SDS011;38449;52.696;6.186;2022-11-15T00:30:24;24.05;;;19.95;;
52542;SDS011;38449;52.696;6.186;2022-11-15T00:32:51;23.88;;;19.27;;
52542;SDS011;38449;52.696;6.186;2022-11-15T00:35:17;22.75;;;19.45;;
52542;SDS011;38449;52.696;6.186;2022-11-15T00:37:43;23.67;;;18.70;;
52542;SDS011;38449;52.696;6.186;2022-11-15T00:40:09;21.33;;;18.25;;
52542;SDS011;38449;52.696;6.186;2022-11-15T00:42:35;23.23;;;19.85;;
52542;SDS011;38449;52.696;6.186;2022-11-15T00:45:01;22.23;;;18.33;;
52542;SDS011;38449;52.696;6.186;2022-11-15T00:47:26;25.45;;;19.70;;
52542;SDS011;38449;52.696;6.186;2022-11-15T00:49:52;22.40;;;18.60;;
52542;SDS011;38449;52.696;6.186;2022-11-15T00:52:18;25.27;;;18.60;;
52542;SDS011;38449;52.696;6.186;2022-11-15T00:54:43;22.77;;;18.75;;
52542;SDS011;38449;52.696;6.186;2022-11-15T00:57:09;24.60;;;20.08;;
52542;SDS011;38449;52.696;6.186;2022-11-15T00:59:35;24.73;;;19.05;;
52542;SDS011;38449;52.696;6.186;2022-11-15T01:02:00;22.98;;;18.67;;
52542;SDS011;38449;52.696;6.186;2022-11-15T01:04:26;25.50;;;19.60;;
52542;SDS011;38449;52.696;6.186;2022-11-15T01:06:52;23.67;;;18.58;;
52542;SDS011;38449;52.696;6.186;2022-11-15T01:09:17;23.77;;;19.63;;
52542;SDS011;38449;52.696;6.186;2022-11-15T01:11:43;24.02;;;19.20;;
52542;SDS011;38449;52.696;6.186;2022-11-15T01:14:09;26.63;;;19.30;;
52542;SDS011;38449;52.696;6.186;2022-11-15T01:16:34;27.33;;;19.77;;
52542;SDS011;38449;52.696;6.186;2022-11-15T01:19:00;26.58;;;20.63;;
52542;SDS011;38449;52.696;6.186;2022-11-15T01:21:25;25.92;;;20.20;;
52542;SDS011;38449;52.696;6.186;2022-11-15T01:23:54;28.05;;;19.17;;
52542;SDS011;38449;52.696;6.186;2022-11-15T01:26:21;25.73;;;19.50;;
52542;SDS011;38449;52.696;6.186;2022-11-15T01:28:48;28.25;;;20.42;;
52542;SDS011;38449;52.696;6.186;2022-11-15T01:31:18;30.80;;;21.63;;
52542;SDS011;38449;52.696;6.186;2022-11-15T01:33:44;28.60;;;20.52;;
52542;SDS011;38449;52.696;6.186;2022-11-15T01:36:12;28.50;;;20.92;;
52542;SDS011;38449;52.696;6.186;2022-11-15T01:38:39;27.30;;;21.33;;
52542;SDS011;38449;52.696;6.186;2022-11-15T01:41:05;27.70;;;21.90;;
52542;SDS011;38449;52.696;6.186;2022-11-15T01:43:32;28.42;;;21.42;;
52542;SDS011;38449;52.696;6.186;2022-11-15T01:46:04;32.00;;;21.60;;
52542;SDS011;38449;52.696;6.186;2022-11-15T01:48:39;32.58;;;23.35;;
52542;SDS011;38449;52.696;6.186;2022-11-15T01:51:06;28.85;;;21.35;;
52542;SDS011;38449;52.696;6.186;2022-11-15T01:53:37;26.98;;;20.60;;
52542;SDS011;38449;52.696;6.186;2022-11-15T01:56:06;29.83;;;21.88;;
52542;SDS011;38449;52.696;6.186;2022-11-15T01:58:34;28.80;;;20.83;;
52542;SDS011;38449;52.696;6.186;2022-11-15T02:01:01;31.20;;;22.10;;
52542;SDS011;38449;52.696;6.186;2022-11-15T02:03:28;29.15;;;21.58;;
52542;SDS011;38449;52.696;6.186;2022-11-15T02:05:59;31.90;;;22.13;;
52542;SDS011;38449;52.696;6.186;2022-11-15T02:08:25;34.40;;;22.83;;
52542;SDS011;38449;52.696;6.186;2022-11-15T02:10:51;33.75;;;22.25;;
52542;SDS011;38449;52.696;6.186;2022-11-15T02:13:16;37.50;;;23.90;;
52542;SDS011;38449;52.696;6.186;2022-11-15T02:15:56;34.72;;;22.70;;
52542;SDS011;38449;52.696;6.186;2022-11-15T02:18:27;39.28;;;24.25;;
52542;SDS011;38449;52.696;6.186;2022-11-15T02:26:30;40.28;;;24.67;;
52542;SDS011;38449;52.696;6.186;2022-11-15T02:35:09;40.13;;;24.42;;
52542;SDS011;38449;52.696;6.186;2022-11-15T02:43:13;38.28;;;25.35;;
52542;SDS011;38449;52.696;6.186;2022-11-15T02:46:09;40.40;;;24.73;;
52542;SDS011;38449;52.696;6.186;2022-11-15T02:48:41;41.05;;;24.42;;
52542;SDS011;38449;52.696;6.186;2022-11-15T02:51:09;39.67;;;24.98;;
52542;SDS011;38449;52.696;6.186;2022-11-15T02:53:36;40.70;;;24.63;;
52542;SDS011;38449;52.696;6.186;2022-11-15T02:56:02;38.88;;;25.08;;
52542;SDS011;38449;52.696;6.186;2022-11-15T03:03:41;37.63;;;26.08;;
52542;SDS011;38449;52.696;6.186;2022-11-15T03:12:35;39.72;;;25.08;;
52542;SDS011;38449;52.696;6.186;2022-11-15T03:18:05;36.40;;;25.88;;
52542;SDS011;38449;52.696;6.186;2022-11-15T03:20:44;38.38;;;24.20;;
52542;SDS011;38449;52.696;6.186;2022-11-15T03:23:10;35.83;;;25.75;;
52542;SDS011;38449;52.696;6.186;2022-11-15T03:25:38;36.58;;;24.65;;
52542;SDS011;38449;52.696;6.186;2022-11-15T03:28:08;35.97;;;24.73;;
52542;SDS011;38449;52.696;6.186;2022-11-15T03:30:37;35.15;;;24.60;;
52542;SDS011;38449;52.696;6.186;2022-11-15T03:33:04;35.92;;;26.30;;
52542;SDS011;38449;52.696;6.186;2022-11-15T03:35:35;34.33;;;24.95;;
52542;SDS011;38449;52.696;6.186;2022-11-15T03:38:22;33.60;;;25.13;;
52542;SDS011;38449;52.696;6.186;2022-11-15T03:41:00;43.13;;;28.08;;
52542;SDS011;38449;52.696;6.186;2022-11-15T03:43:32;41.45;;;27.60;;
52542;SDS011;38449;52.696;6.186;2022-11-15T03:46:30;45.85;;;28.23;;
52542;SDS011;38449;52.696;6.186;2022-11-15T03:49:02;44.20;;;29.95;;
52542;SDS011;38449;52.696;6.186;2022-11-15T03:51:40;47.20;;;29.92;;
52542;SDS011;38449;52.696;6.186;2022-11-15T03:54:06;51.22;;;30.13;;
52542;SDS011;38449;52.696;6.186;2022-11-15T03:56:32;52.28;;;31.02;;
52542;SDS011;38449;52.696;6.186;2022-11-15T03:58:57;49.22;;;31.42;;
52542;SDS011;38449;52.696;6.186;2022-11-15T04:01:23;52.47;;;31.00;;
52542;SDS011;38449;52.696;6.186;2022-11-15T04:03:49;63.80;;;32.90;;
52542;SDS011;38449;52.696;6.186;2022-11-15T04:06:14;58.08;;;32.00;;
52542;SDS011;38449;52.696;6.186;2022-11-15T04:08:40;51.00;;;32.50;;
52542;SDS011;38449;52.696;6.186;2022-11-15T04:11:06;52.85;;;32.75;;
52542;SDS011;38449;52.696;6.186;2022-11-15T04:13:32;60.88;;;33.85;;
52542;SDS011;38449;52.696;6.186;2022-11-15T04:15:57;56.03;;;32.85;;
52542;SDS011;38449;52.696;6.186;2022-11-15T04:18:23;54.65;;;32.53;;
52542;SDS011;38449;52.696;6.186;2022-11-15T04:20:50;54.10;;;32.63;;
52542;SDS011;38449;52.696;6.186;2022-11-15T04:23:34;52.80;;;32.45;;
52542;SDS011;38449;52.696;6.186;2022-11-15T04:26:19;59.13;;;34.53;;
52542;SDS011;38449;52.696;6.186;2022-11-15T04:28:47;50.22;;;32.05;;
52542;SDS011;38449;52.696;6.186;2022-11-15T04:31:31;53.50;;;33.05;;
52542;SDS011;38449;52.696;6.186;2022-11-15T04:33:57;55.00;;;33.05;;
52542;SDS011;38449;52.696;6.186;2022-11-15T04:36:23;62.85;;;35.80;;
52542;SDS011;38449;52.696;6.186;2022-11-15T04:39:07;57.50;;;34.38;;
52542;SDS011;38449;52.696;6.186;2022-11-15T04:41:33;59.13;;;33.25;;
52542;SDS011;38449;52.696;6.186;2022-11-15T04:43:59;61.00;;;35.33;;
52542;SDS011;38449;52.696;6.186;2022-11-15T04:46:24;62.90;;;34.40;;
52542;SDS011;38449;52.696;6.186;2022-11-15T04:48:50;61.83;;;33.97;;
52542;SDS011;38449;52.696;6.186;2022-11-15T04:51:16;56.85;;;33.85;;
52542;SDS011;38449;52.696;6.186;2022-11-15T04:53:42;52.17;;;34.78;;
52542;SDS011;38449;52.696;6.186;2022-11-15T04:56:08;57.72;;;33.72;;
52542;SDS011;38449;52.696;6.186;2022-11-15T04:58:34;54.88;;;33.60;;
52542;SDS011;38449;52.696;6.186;2022-11-15T05:01:10;58.80;;;34.78;;
52542;SDS011;38449;52.696;6.186;2022-11-15T05:03:38;50.45;;;31.95;;
52542;SDS011;38449;52.696;6.186;2022-11-15T05:06:22;50.53;;;32.47;;
52542;SDS011;38449;52.696;6.186;2022-11-15T05:08:48;49.97;;;33.28;;
52542;SDS011;38449;52.696;6.186;2022-11-15T05:11:14;48.80;;;32.30;;
52542;SDS011;38449;52.696;6.186;2022-11-15T05:13:39;49.65;;;32.45;;
52542;SDS011;38449;52.696;6.186;2022-11-15T05:16:05;50.55;;;32.67;;
52542;SDS011;38449;52.696;6.186;2022-11-15T05:18:31;48.92;;;31.77;;
52542;SDS011;38449;52.696;6.186;2022-11-15T05:21:02;46.60;;;30.67;;
52542;SDS011;38449;52.696;6.186;2022-11-15T05:23:28;53.33;;;32.25;;
52542;SDS011;38449;52.696;6.186;2022-11-15T05:25:58;46.95;;;30.80;;
52542;SDS011;38449;52.696;6.186;2022-11-15T05:28:27;55.78;;;32.47;;
52542;SDS011;38449;52.696;6.186;2022-11-15T05:30:53;53.40;;;31.10;;
52542;SDS011;38449;52.696;6.186;2022-11-15T05:33:24;54.05;;;32.45;;
52542;SDS011;38449;52.696;6.186;2022-11-15T05:35:50;47.78;;;31.25;;
52542;SDS011;38449;52.696;6.186;2022-11-15T05:38:23;54.80;;;33.42;;
52542;SDS011;38449;52.696;6.186;2022-11-15T05:40:49;48.75;;;31.42;;
52542;SDS011;38449;52.696;6.186;2022-11-15T05:43:15;50.63;;;32.63;;
52542;SDS011;38449;52.696;6.186;2022-11-15T05:45:40;53.25;;;32.17;;
52542;SDS011;38449;52.696;6.186;2022-11-15T05:48:06;52.85;;;33.03;;
52542;SDS011;38449;52.696;6.186;2022-11-15T05:50:35;49.97;;;32.30;;
52542;SDS011;38449;52.696;6.186;2022-11-15T05:53:03;51.80;;;32.20;;
52542;SDS011;38449;52.696;6.186;2022-11-15T05:55:30;55.00;;;32.08;;
52542;SDS011;38449;52.696;6.186;2022-11-15T05:57:58;47.20;;;30.83;;
52542;SDS011;38449;52.696;6.186;2022-11-15T06:00:25;47.13;;;29.90;;
52542;SDS011;38449;52.696;6.186;2022-11-15T06:02:50;47.45;;;31.35;;
52542;SDS011;38449;52.696;6.186;2022-11-15T06:05:16;52.47;;;31.67;;
52542;SDS011;38449;52.696;6.186;2022-11-15T06:07:41;50.47;;;31.25;;
52542;SDS011;38449;52.696;6.186;2022-11-15T06:10:09;52.33;;;31.38;;
52542;SDS011;38449;52.696;6.186;2022-11-15T06:12:34;48.45;;;30.52;;
52542;SDS011;38449;52.696;6.186;2022-11-15T06:15:00;44.83;;;31.35;;
52542;SDS011;38449;52.696;6.186;2022-11-15T06:17:25;48.58;;;30.60;;
52542;SDS011;38449;52.696;6.186;2022-11-15T06:19:51;47.00;;;30.75;;
52542;SDS011;38449;52.696;6.186;2022-11-15T06:22:16;46.83;;;30.92;;
52542;SDS011;38449;52.696;6.186;2022-11-15T06:24:42;44.30;;;29.88;;
52542;SDS011;38449;52.696;6.186;2022-11-15T06:27:09;49.05;;;30.83;;
52542;SDS011;38449;52.696;6.186;2022-11-15T06:29:35;41.58;;;29.30;;
52542;SDS011;38449;52.696;6.186;2022-11-15T06:32:01;44.13;;;30.38;;
52542;SDS011;38449;52.696;6.186;2022-11-15T06:34:27;44.45;;;28.80;;
52542;SDS011;38449;52.696;6.186;2022-11-15T06:36:52;42.25;;;28.17;;
52542;SDS011;38449;52.696;6.186;2022-11-15T06:39:18;38.35;;;29.02;;
52542;SDS011;38449;52.696;6.186;2022-11-15T06:41:44;44.80;;;29.52;;
52542;SDS011;38449;52.696;6.186;2022-11-15T06:44:09;39.28;;;28.15;;
52542;SDS011;38449;52.696;6.186;2022-11-15T06:46:35;40.85;;;29.60;;
52542;SDS011;38449;52.696;6.186;2022-11-15T06:49:00;42.95;;;27.75;;
52542;SDS011;38449;52.696;6.186;2022-11-15T06:51:26;38.13;;;28.75;;
52542;SDS011;38449;52.696;6.186;2022-11-15T06:53:51;34.05;;;26.95;;
52542;SDS011;38449;52.696;6.186;2022-11-15T06:56:17;38.17;;;27.17;;
52542;SDS011;38449;52.696;6.186;2022-11-15T06:58:42;36.55;;;27.17;;
52542;SDS011;38449;52.696;6.186;2022-11-15T07:01:09;35.63;;;26.83;;
52542;SDS011;38449;52.696;6.186;2022-11-15T07:03:36;34.42;;;26.58;;
52542;SDS011;38449;52.696;6.186;2022-11-15T07:06:03;34.67;;;26.58;;
52542;SDS011;38449;52.696;6.186;2022-11-15T07:08:29;32.47;;;25.67;;
52542;SDS011;38449;52.696;6.186;2022-11-15T07:10:59;34.65;;;27.08;;
52542;SDS011;38449;52.696;6.186;2022-11-15T07:13:27;36.38;;;27.40;;
52542;SDS011;38449;52.696;6.186;2022-11-15T07:15:53;35.65;;;26.17;;
52542;SDS011;38449;52.696;6.186;2022-11-15T07:18:19;35.38;;;26.42;;
52542;SDS011;38449;52.696;6.186;2022-11-15T07:20:45;34.42;;;27.13;;
52542;SDS011;38449;52.696;6.186;2022-11-15T07:23:11;33.80;;;26.77;;
52542;SDS011;38449;52.696;6.186;2022-11-15T07:25:37;34.40;;;25.77;;
52542;SDS011;38449;52.696;6.186;2022-11-15T07:28:02;34.78;;;26.13;;
52542;SDS011;38449;52.696;6.186;2022-11-15T07:30:28;31.95;;;26.30;;
52542;SDS011;38449;52.696;6.186;2022-11-15T07:32:55;34.75;;;26.85;;
52542;SDS011;38449;52.696;6.186;2022-11-15T07:35:22;34.72;;;25.77;;
52542;SDS011;38449;52.696;6.186;2022-11-15T07:40:28;38.53;;;25.92;;
52542;SDS011;38449;52.696;6.186;2022-11-15T07:43:03;34.45;;;26.17;;
52542;SDS011;38449;52.696;6.186;2022-11-15T07:45:30;37.13;;;29.80;;
52542;SDS011;38449;52.696;6.186;2022-11-15T07:47:58;39.88;;;30.88;;
52542;SDS011;38449;52.696;6.186;2022-11-15T07:50:24;38.95;;;30.52;;
52542;SDS011;38449;52.696;6.186;2022-11-15T07:52:57;34.97;;;30.23;;
52542;SDS011;38449;52.696;6.186;2022-11-15T07:55:24;42.92;;;37.50;;
52542;SDS011;38449;52.696;6.186;2022-11-15T07:58:04;42.90;;;36.13;;
52542;SDS011;38449;52.696;6.186;2022-11-15T08:00:32;34.08;;;26.75;;
52542;SDS011;38449;52.696;6.186;2022-11-15T08:03:05;41.75;;;32.50;;
52542;SDS011;38449;52.696;6.186;2022-11-15T08:05:32;36.33;;;30.67;;
52542;SDS011;38449;52.696;6.186;2022-11-15T08:07:58;31.38;;;25.23;;
52542;SDS011;38449;52.696;6.186;2022-11-15T08:10:24;36.05;;;26.25;;
52542;SDS011;38449;52.696;6.186;2022-11-15T08:13:01;37.03;;;29.10;;
52542;SDS011;38449;52.696;6.186;2022-11-15T08:15:31;56.90;;;51.00;;
52542;SDS011;38449;52.696;6.186;2022-11-15T08:17:59;45.55;;;40.60;;
52542;SDS011;38449;52.696;6.186;2022-11-15T08:20:26;37.17;;;30.00;;
52542;SDS011;38449;52.696;6.186;2022-11-15T08:22:55;35.40;;;26.88;;
52542;SDS011;38449;52.696;6.186;2022-11-15T08:25:21;33.58;;;25.92;;
52542;SDS011;38449;52.696;6.186;2022-11-15T08:27:47;35.75;;;27.42;;
52542;SDS011;38449;52.696;6.186;2022-11-15T08:30:15;30.23;;;25.80;;
52542;SDS011;38449;52.696;6.186;2022-11-15T08:32:41;30.38;;;24.83;;
52542;SDS011;38449;52.696;6.186;2022-11-15T08:35:07;35.75;;;26.77;;
52542;SDS011;38449;52.696;6.186;2022-11-15T08:37:34;33.92;;;26.85;;
52542;SDS011;38449;52.696;6.186;2022-11-15T08:40:01;34.90;;;27.13;;
52542;SDS011;38449;52.696;6.186;2022-11-15T08:42:26;36.75;;;27.77;;
52542;SDS011;38449;52.696;6.186;2022-11-15T08:44:52;34.33;;;26.35;;
52542;SDS011;38449;52.696;6.186;2022-11-15T08:47:18;37.55;;;25.98;;
52542;SDS011;38449;52.696;6.186;2022-11-15T08:49:43;31.67;;;25.42;;
52542;SDS011;38449;52.696;6.186;2022-11-15T08:52:09;32.20;;;26.48;;
52542;SDS011;38449;52.696;6.186;2022-11-15T08:54:34;30.70;;;25.05;;
52542;SDS011;38449;52.696;6.186;2022-11-15T08:57:00;33.55;;;24.90;;
52542;SDS011;38449;52.696;6.186;2022-11-15T08:59:25;33.15;;;29.52;;
52542;SDS011;38449;52.696;6.186;2022-11-15T09:01:51;30.50;;;25.00;;
52542;SDS011;38449;52.696;6.186;2022-11-15T09:04:17;29.45;;;24.30;;
52542;SDS011;38449;52.696;6.186;2022-11-15T09:06:42;30.80;;;24.30;;
52542;SDS011;38449;52.696;6.186;2022-11-15T09:09:08;31.88;;;25.95;;
52542;SDS011;38449;52.696;6.186;2022-11-15T09:11:33;30.17;;;23.65;;
52542;SDS011;38449;52.696;6.186;2022-11-15T09:13:59;34.22;;;23.02;;
52542;SDS011;38449;52.696;6.186;2022-11-15T09:16:25;28.20;;;23.70;;
52542;SDS011;38449;52.696;6.186;2022-11-15T09:18:50;27.95;;;21.83;;
52542;SDS011;38449;52.696;6.186;2022-11-15T09:21:17;29.77;;;22.25;;
52542;SDS011;38449;52.696;6.186;2022-11-15T09:23:42;27.13;;;22.35;;
52542;SDS011;38449;52.696;6.186;2022-11-15T09:26:08;26.23;;;21.67;;
52542;SDS011;38449;52.696;6.186;2022-11-15T09:28:34;28.55;;;22.42;;
52542;SDS011;38449;52.696;6.186;2022-11-15T09:31:02;27.67;;;21.80;;
52542;SDS011;38449;52.696;6.186;2022-11-15T09:33:30;27.38;;;20.95;;
52542;SDS011;38449;52.696;6.186;2022-11-15T09:36:03;27.45;;;21.45;;
52542;SDS011;38449;52.696;6.186;2022-11-15T09:41:24;23.80;;;21.08;;
52542;SDS011;38449;52.696;6.186;2022-11-15T09:49:25;21.80;;;18.88;;
52542;SDS011;38449;52.696;6.186;2022-11-15T09:51:53;21.67;;;19.27;;
52542;SDS011;38449;52.696;6.186;2022-11-15T10:02:30;20.90;;;18.70;;
52542;SDS011;38449;52.696;6.186;2022-11-15T10:05:11;19.25;;;17.23;;
52542;SDS011;38449;52.696;6.186;2022-11-15T10:07:45;19.17;;;16.60;;
52542;SDS011;38449;52.696;6.186;2022-11-15T10:10:25;18.58;;;16.63;;
52542;SDS011;38449;52.696;6.186;2022-11-15T10:12:56;20.05;;;15.95;;
52542;SDS011;38449;52.696;6.186;2022-11-15T10:15:22;20.60;;;17.65;;
52542;SDS011;38449;52.696;6.186;2022-11-15T10:20:22;17.08;;;14.98;;
52542;SDS011;38449;52.696;6.186;2022-11-15T10:22:51;18.40;;;14.88;;
52542;SDS011;38449;52.696;6.186;2022-11-15T10:25:21;17.15;;;15.13;;
52542;SDS011;38449;52.696;6.186;2022-11-15T10:28:12;16.55;;;14.77;;
52542;SDS011;38449;52.696;6.186;2022-11-15T10:30:48;18.85;;;16.85;;
52542;SDS011;38449;52.696;6.186;2022-11-15T10:33:21;15.65;;;13.55;;
52542;SDS011;38449;52.696;6.186;2022-11-15T10:35:49;16.30;;;12.93;;
52542;SDS011;38449;52.696;6.186;2022-11-15T10:38:51;15.80;;;12.10;;
52542;SDS011;38449;52.696;6.186;2022-11-15T10:41:20;17.45;;;11.48;;
52542;SDS011;38449;52.696;6.186;2022-11-15T10:49:21;12.52;;;9.43;;
52542;SDS011;38449;52.696;6.186;2022-11-15T10:52:04;12.15;;;9.60;;
52542;SDS011;38449;52.696;6.186;2022-11-15T10:57:13;11.68;;;8.85;;
52542;SDS011;38449;52.696;6.186;2022-11-15T10:59:45;11.73;;;9.30;;
52542;SDS011;38449;52.696;6.186;2022-11-15T11:02:27;12.85;;;9.15;;
52542;SDS011;38449;52.696;6.186;2022-11-15T11:04:53;10.73;;;8.70;;
52542;SDS011;38449;52.696;6.186;2022-11-15T11:07:20;10.68;;;8.05;;
52542;SDS011;38449;52.696;6.186;2022-11-15T11:09:49;11.40;;;7.95;;
52542;SDS011;38449;52.696;6.186;2022-11-15T11:12:32;12.25;;;8.20;;
52542;SDS011;38449;52.696;6.186;2022-11-15T11:14:59;12.05;;;7.85;;
52542;SDS011;38449;52.696;6.186;2022-11-15T11:20:12;10.10;;;7.07;;
52542;SDS011;38449;52.696;6.186;2022-11-15T11:28:43;10.68;;;7.10;;
52542;SDS011;38449;52.696;6.186;2022-11-15T11:31:35;9.38;;;6.43;;
52542;SDS011;38449;52.696;6.186;2022-11-15T11:46:05;10.50;;;5.95;;
52542;SDS011;38449;52.696;6.186;2022-11-15T11:48:48;8.30;;;5.72;;
52542;SDS011;38449;52.696;6.186;2022-11-15T11:51:27;7.75;;;5.78;;
52542;SDS011;38449;52.696;6.186;2022-11-15T11:54:00;11.23;;;5.40;;
52542;SDS011;38449;52.696;6.186;2022-11-15T11:56:31;8.13;;;5.38;;
52542;SDS011;38449;52.696;6.186;2022-11-15T11:59:12;7.28;;;5.25;;
52542;SDS011;38449;52.696;6.186;2022-11-15T12:01:50;9.35;;;5.30;;
52542;SDS011;38449;52.696;6.186;2022-11-15T12:04:21;8.32;;;5.43;;
52542;SDS011;38449;52.696;6.186;2022-11-15T12:07:04;11.32;;;8.32;;
52542;SDS011;38449;52.696;6.186;2022-11-15T12:09:35;9.45;;;6.93;;
52542;SDS011;38449;52.696;6.186;2022-11-15T12:14:56;6.65;;;4.80;;
52542;SDS011;38449;52.696;6.186;2022-11-15T12:17:28;12.10;;;9.20;;
52542;SDS011;38449;52.696;6.186;2022-11-15T12:19:57;48.70;;;37.47;;
52542;SDS011;38449;52.696;6.186;2022-11-15T12:22:42;26.13;;;19.33;;
52542;SDS011;38449;52.696;6.186;2022-11-15T12:28:31;34.60;;;25.88;;
52542;SDS011;38449;52.696;6.186;2022-11-15T12:31:11;33.10;;;25.23;;
52542;SDS011;38449;52.696;6.186;2022-11-15T12:33:42;33.00;;;24.67;;
52542;SDS011;38449;52.696;6.186;2022-11-15T12:41:28;6.97;;;4.07;;
52542;SDS011;38449;52.696;6.186;2022-11-15T12:49:00;5.35;;;3.47;;
52542;SDS011;38449;52.696;6.186;2022-11-15T13:02:27;6.18;;;2.83;;
52542;SDS011;38449;52.696;6.186;2022-11-15T13:17:39;5.72;;;3.60;;
52542;SDS011;38449;52.696;6.186;2022-11-15T13:25:27;4.15;;;2.50;;
52542;SDS011;38449;52.696;6.186;2022-11-15T13:27:59;3.95;;;2.60;;
52542;SDS011;38449;52.696;6.186;2022-11-15T13:30:27;5.50;;;2.70;;
52542;SDS011;38449;52.696;6.186;2022-11-15T13:32:55;4.10;;;1.88;;
52542;SDS011;38449;52.696;6.186;2022-11-15T13:35:26;4.10;;;1.83;;
52542;SDS011;38449;52.696;6.186;2022-11-15T13:37:54;4.03;;;1.90;;
52542;SDS011;38449;52.696;6.186;2022-11-15T13:42:52;2.67;;;1.75;;
52542;SDS011;38449;52.696;6.186;2022-11-15T13:45:18;3.55;;;1.70;;
52542;SDS011;38449;52.696;6.186;2022-11-15T13:47:44;3.25;;;2.10;;
52542;SDS011;38449;52.696;6.186;2022-11-15T13:50:15;4.32;;;1.75;;
52542;SDS011;38449;52.696;6.186;2022-11-15T13:52:42;5.15;;;1.83;;
52542;SDS011;38449;52.696;6.186;2022-11-15T13:55:14;4.43;;;1.92;;
52542;SDS011;38449;52.696;6.186;2022-11-15T13:58:05;3.25;;;2.10;;
52542;SDS011;38449;52.696;6.186;2022-11-15T14:00:41;4.38;;;1.98;;
52542;SDS011;38449;52.696;6.186;2022-11-15T14:06:04;4.20;;;1.95;;
52542;SDS011;38449;52.696;6.186;2022-11-15T14:08:32;4.43;;;2.05;;
52542;SDS011;38449;52.696;6.186;2022-11-15T14:13:41;3.00;;;1.70;;
52542;SDS011;38449;52.696;6.186;2022-11-15T14:16:23;4.65;;;1.73;;
52542;SDS011;38449;52.696;6.186;2022-11-15T14:19:01;5.65;;;1.90;;
52542;SDS011;38449;52.696;6.186;2022-11-15T14:21:27;6.03;;;2.20;;
52542;SDS011;38449;52.696;6.186;2022-11-15T14:24:13;4.63;;;2.17;;
52542;SDS011;38449;52.696;6.186;2022-11-15T14:26:43;6.05;;;1.75;;
52542;SDS011;38449;52.696;6.186;2022-11-15T14:29:22;5.70;;;1.80;;
52542;SDS011;38449;52.696;6.186;2022-11-15T14:31:52;4.50;;;1.85;;
52542;SDS011;38449;52.696;6.186;2022-11-15T14:34:19;5.15;;;2.17;;
52542;SDS011;38449;52.696;6.186;2022-11-15T14:36:47;3.65;;;1.70;;
52542;SDS011;38449;52.696;6.186;2022-11-15T14:39:12;4.18;;;2.00;;
52542;SDS011;38449;52.696;6.186;2022-11-15T14:41:38;5.43;;;1.92;;
52542;SDS011;38449;52.696;6.186;2022-11-15T14:44:04;3.75;;;1.60;;
52542;SDS011;38449;52.696;6.186;2022-11-15T14:46:30;3.17;;;1.55;;
52542;SDS011;38449;52.696;6.186;2022-11-15T14:48:56;4.25;;;1.70;;
52542;SDS011;38449;52.696;6.186;2022-11-15T14:51:22;3.13;;;1.60;;
52542;SDS011;38449;52.696;6.186;2022-11-15T14:53:47;3.67;;;1.60;;
52542;SDS011;38449;52.696;6.186;2022-11-15T14:56:13;2.90;;;1.75;;
52542;SDS011;38449;52.696;6.186;2022-11-15T14:58:39;6.75;;;3.35;;
52542;SDS011;38449;52.696;6.186;2022-11-15T15:01:11;5.43;;;3.05;;
52542;SDS011;38449;52.696;6.186;2022-11-15T15:03:42;6.60;;;3.38;;
52542;SDS011;38449;52.696;6.186;2022-11-15T15:06:09;7.70;;;2.20;;
52542;SDS011;38449;52.696;6.186;2022-11-15T15:08:35;4.93;;;2.38;;
52542;SDS011;38449;52.696;6.186;2022-11-15T15:11:00;3.50;;;2.03;;
52542;SDS011;38449;52.696;6.186;2022-11-15T15:13:26;5.43;;;2.63;;
52542;SDS011;38449;52.696;6.186;2022-11-15T15:15:53;6.00;;;2.97;;
52542;SDS011;38449;52.696;6.186;2022-11-15T15:18:19;6.25;;;2.38;;
52542;SDS011;38449;52.696;6.186;2022-11-15T15:20:45;4.72;;;2.65;;
52542;SDS011;38449;52.696;6.186;2022-11-15T15:23:19;6.47;;;2.97;;
52542;SDS011;38449;52.696;6.186;2022-11-15T15:25:45;6.15;;;2.78;;
52542;SDS011;38449;52.696;6.186;2022-11-15T15:28:13;6.30;;;3.47;;
52542;SDS011;38449;52.696;6.186;2022-11-15T15:30:39;5.07;;;3.15;;
52542;SDS011;38449;52.696;6.186;2022-11-15T15:33:05;5.22;;;3.50;;
52542;SDS011;38449;52.696;6.186;2022-11-15T15:35:31;6.22;;;3.17;;
52542;SDS011;38449;52.696;6.186;2022-11-15T15:37:59;7.00;;;3.90;;
52542;SDS011;38449;52.696;6.186;2022-11-15T15:40:25;8.77;;;4.78;;
52542;SDS011;38449;52.696;6.186;2022-11-15T15:42:54;6.35;;;3.50;;
52542;SDS011;38449;52.696;6.186;2022-11-15T15:45:19;4.93;;;3.38;;
52542;SDS011;38449;52.696;6.186;2022-11-15T15:47:45;7.35;;;4.68;;
52542;SDS011;38449;52.696;6.186;2022-11-15T15:50:27;4.90;;;3.60;;
52542;SDS011;38449;52.696;6.186;2022-11-15T15:52:55;5.95;;;3.20;;
52542;SDS011;38449;52.696;6.186;2022-11-15T15:55:23;6.53;;;3.65;;
52542;SDS011;38449;52.696;6.186;2022-11-15T15:57:49;6.25;;;3.85;;
52542;SDS011;38449;52.696;6.186;2022-11-15T16:00:15;5.55;;;3.50;;
52542;SDS011;38449;52.696;6.186;2022-11-15T16:02:42;6.53;;;3.75;;
52542;SDS011;38449;52.696;6.186;2022-11-15T16:05:08;7.70;;;3.85;;
52542;SDS011;38449;52.696;6.186;2022-11-15T16:07:34;6.90;;;3.90;;
52542;SDS011;38449;52.696;6.186;2022-11-15T16:10:00;7.03;;;3.65;;
52542;SDS011;38449;52.696;6.186;2022-11-15T16:12:28;6.28;;;3.53;;
52542;SDS011;38449;52.696;6.186;2022-11-15T16:14:55;5.38;;;3.40;;
52542;SDS011;38449;52.696;6.186;2022-11-15T16:17:21;5.78;;;3.83;;
52542;SDS011;38449;52.696;6.186;2022-11-15T16:19:50;5.55;;;3.17;;
52542;SDS011;38449;52.696;6.186;2022-11-15T16:22:16;8.63;;;3.53;;
52542;SDS011;38449;52.696;6.186;2022-11-15T16:24:41;5.97;;;3.50;;
52542;SDS011;38449;52.696;6.186;2022-11-15T16:27:14;5.60;;;3.88;;
52542;SDS011;38449;52.696;6.186;2022-11-15T16:29:40;6.78;;;3.50;;
52542;SDS011;38449;52.696;6.186;2022-11-15T16:32:06;5.15;;;3.03;;
52542;SDS011;38449;52.696;6.186;2022-11-15T16:34:32;5.38;;;3.10;;
52542;SDS011;38449;52.696;6.186;2022-11-15T16:36:57;6.97;;;3.45;;
52542;SDS011;38449;52.696;6.186;2022-11-15T16:39:23;6.03;;;3.30;;
52542;SDS011;38449;52.696;6.186;2022-11-15T16:41:48;7.47;;;3.85;;
52542;SDS011;38449;52.696;6.186;2022-11-15T16:44:14;6.70;;;3.75;;
52542;SDS011;38449;52.696;6.186;2022-11-15T16:46:40;6.05;;;3.38;;
52542;SDS011;38449;52.696;6.186;2022-11-15T16:49:13;7.30;;;3.70;;
52542;SDS011;38449;52.696;6.186;2022-11-15T16:51:40;7.65;;;4.50;;
52542;SDS011;38449;52.696;6.186;2022-11-15T16:54:06;6.97;;;3.22;;